Arctic Bay — 9HTD8 — position and weather

sailwx.info

Track history (hours):
 
Tides and Currents Weather Stations Pressure Air Temp Water Temp Dewpoint Dewpoint Depression Visibility Wind Speed Wind Dir Waves Ship Positions

Arctic Bay

Last reported at 2017-Mar-23 03:33 UTC. Time now 2017-Mar-23 14:22 UTC.
Position N 40°27' W 073°51'.

Length 182 m; draft 8 m.

Type: Ship. MMSI: 256396000.

Date/timePositionNaut miles runAvg speedWind from/ knotsBaromVisibWave heightAir tempDewpointWater temp
2017-Mar-23 03:33N 40°27' W 073°51'1110.7
2017-Mar-23 02:33N 40°34' W 074°02'4 3.4
2017-Mar-23 01:32N 40°37' W 074°04'0 0.0
2017-Mar-23 00:32N 40°37' W 074°04'0 0.0
2017-Mar-22 23:29N 40°37' W 074°04'0 0.0
2017-Mar-22 22:32N 40°37' W 074°04'0 0.0
2017-Mar-22 21:32N 40°37' W 074°04'0 0.0
2017-Mar-22 20:29N 40°38' W 074°04'0 0.0
2017-Mar-22 19:32N 40°38' W 074°04'0 0.0
2017-Mar-22 18:32N 40°38' W 074°04'0 0.1
2017-Mar-22 17:32N 40°37' W 074°04'0 0.0
2017-Mar-22 16:32N 40°37' W 074°04'0 0.0
2017-Mar-22 15:32N 40°37' W 074°04'0 0.0
2017-Mar-22 14:32N 40°37' W 074°04'0 0.0
2017-Mar-22 13:32N 40°37' W 074°04'0 0.0
2017-Mar-22 12:32N 40°37' W 074°04'0 0.0
2017-Mar-22 11:32N 40°37' W 074°04'0 0.0
2017-Mar-22 10:32N 40°37' W 074°04'0 0.0
2017-Mar-22 09:32N 40°38' W 074°04'0 0.0
2017-Mar-22 08:32N 40°38' W 074°04'0 0.2
2017-Mar-22 07:32N 40°38' W 074°04'0 0.0
2017-Mar-22 06:32N 40°38' W 074°04'0 0.2
2017-Mar-22 05:32N 40°38' W 074°04'0 0.0
2017-Mar-22 04:32N 40°37' W 074°04'0 0.0
2017-Mar-22 03:32N 40°38' W 074°04'0 0.0
2017-Mar-22 02:32N 40°38' W 074°04'0 0.0
2017-Mar-22 01:32N 40°37' W 074°04'0 0.0
2017-Mar-22 00:32N 40°37' W 074°04'0 0.1
2017-Mar-21 23:32N 40°38' W 074°04'0 0.1
2017-Mar-21 22:29N 40°38' W 074°04'0 0.1
2017-Mar-21 21:32N 40°38' W 074°04'0 0.1
2017-Mar-21 20:32N 40°38' W 074°04'0 0.0
2017-Mar-21 19:32N 40°38' W 074°04'0 0.0
2017-Mar-21 18:32N 40°38' W 074°04'1 0.6
2017-Mar-21 17:33N 40°37' W 074°03'8 8.2
2017-Mar-21 16:32N 40°29' W 074°06'8 7.1
2017-Mar-21 15:26N 40°32' W 074°15'5 0.1
2017-Mar-20 05:31N 40°30' W 074°09'8 8.0
2017-Mar-20 04:33N 40°29' W 073°59'3 2.6
2017-Mar-20 03:33N 40°31' W 074°00'7 7.4
2017-Mar-20 02:33N 40°38' W 074°04'0 0.1
2017-Mar-20 01:33N 40°38' W 074°04'0 0.0
2017-Mar-20 00:33N 40°38' W 074°04'0 0.0
2017-Mar-19 23:33N 40°38' W 074°04'0 0.0
2017-Mar-19 22:33N 40°38' W 074°04'0 0.3
2017-Mar-19 21:34N 40°38' W 074°04'9 9.3
2017-Mar-19 20:34N 40°30' W 073°57'10 9.9
2017-Mar-19 19:33N 40°26' W 073°45'  
Track history (hours):
 
Tides and Currents Weather Stations Pressure Air Temp Water Temp Dewpoint Dewpoint Depression Visibility Wind Speed Wind Dir Waves Ship Positions

Arctic Bay

Last reported at 2017-Mar-23 03:33 UTC. Time now 2017-Mar-23 14:22 UTC.
Position N 40°27' W 073°51'.

Length 182 m; draft 8 m.

Type: Ship. MMSI: 256396000.

Date/timePositionNaut miles runAvg speedWind from/ knotsBaromVisibWave heightAir tempDewpointWater temp
2017-Mar-23 03:33N 40°27' W 073°51'1110.7
2017-Mar-23 02:33N 40°34' W 074°02'4 3.4
2017-Mar-23 01:32N 40°37' W 074°04'0 0.0
2017-Mar-23 00:32N 40°37' W 074°04'0 0.0
2017-Mar-22 23:29N 40°37' W 074°04'0 0.0
2017-Mar-22 22:32N 40°37' W 074°04'0 0.0
2017-Mar-22 21:32N 40°37' W 074°04'0 0.0
2017-Mar-22 20:29N 40°38' W 074°04'0 0.0
2017-Mar-22 19:32N 40°38' W 074°04'0 0.0
2017-Mar-22 18:32N 40°38' W 074°04'0 0.1
2017-Mar-22 17:32N 40°37' W 074°04'0 0.0
2017-Mar-22 16:32N 40°37' W 074°04'0 0.0
2017-Mar-22 15:32N 40°37' W 074°04'0 0.0
2017-Mar-22 14:32N 40°37' W 074°04'0 0.0
2017-Mar-22 13:32N 40°37' W 074°04'0 0.0
2017-Mar-22 12:32N 40°37' W 074°04'0 0.0
2017-Mar-22 11:32N 40°37' W 074°04'0 0.0
2017-Mar-22 10:32N 40°37' W 074°04'0 0.0
2017-Mar-22 09:32N 40°38' W 074°04'0 0.0
2017-Mar-22 08:32N 40°38' W 074°04'0 0.2
2017-Mar-22 07:32N 40°38' W 074°04'0 0.0
2017-Mar-22 06:32N 40°38' W 074°04'0 0.2
2017-Mar-22 05:32N 40°38' W 074°04'0 0.0
2017-Mar-22 04:32N 40°37' W 074°04'0 0.0
2017-Mar-22 03:32N 40°38' W 074°04'0 0.0
2017-Mar-22 02:32N 40°38' W 074°04'0 0.0
2017-Mar-22 01:32N 40°37' W 074°04'0 0.0
2017-Mar-22 00:32N 40°37' W 074°04'0 0.1
2017-Mar-21 23:32N 40°38' W 074°04'0 0.1
2017-Mar-21 22:29N 40°38' W 074°04'0 0.1
2017-Mar-21 21:32N 40°38' W 074°04'0 0.1
2017-Mar-21 20:32N 40°38' W 074°04'0 0.0
2017-Mar-21 19:32N 40°38' W 074°04'0 0.0
2017-Mar-21 18:32N 40°38' W 074°04'1 0.6
2017-Mar-21 17:33N 40°37' W 074°03'8 8.2
2017-Mar-21 16:32N 40°29' W 074°06'8 7.1
2017-Mar-21 15:26N 40°32' W 074°15'5 0.1
2017-Mar-20 05:31N 40°30' W 074°09'8 8.0
2017-Mar-20 04:33N 40°29' W 073°59'3 2.6
2017-Mar-20 03:33N 40°31' W 074°00'7 7.4
2017-Mar-20 02:33N 40°38' W 074°04'0 0.1
2017-Mar-20 01:33N 40°38' W 074°04'0 0.0
2017-Mar-20 00:33N 40°38' W 074°04'0 0.0
2017-Mar-19 23:33N 40°38' W 074°04'0 0.0
2017-Mar-19 22:33N 40°38' W 074°04'0 0.3
2017-Mar-19 21:34N 40°38' W 074°04'9 9.3
2017-Mar-19 20:34N 40°30' W 073°57'10 9.9
2017-Mar-19 19:33N 40°26' W 073°45'  

Dump ship's entire track history